sensor_id;sensor_type;location;lat;lon;timestamp;P1;durP1;ratioP1;P2;durP2;ratioP2
8183;SDS011;4133;48.752;9.088;2023-09-07T00:00:36;1.57;;;1.47;;
8183;SDS011;4133;48.752;9.088;2023-09-07T00:03:02;1.17;;;1.10;;
8183;SDS011;4133;48.752;9.088;2023-09-07T00:05:29;1.20;;;1.10;;
8183;SDS011;4133;48.752;9.088;2023-09-07T00:07:58;1.20;;;1.10;;
8183;SDS011;4133;48.752;9.088;2023-09-07T00:10:25;1.10;;;1.10;;
8183;SDS011;4133;48.752;9.088;2023-09-07T00:12:52;2.27;;;1.40;;
8183;SDS011;4133;48.752;9.088;2023-09-07T00:15:18;1.13;;;1.13;;
8183;SDS011;4133;48.752;9.088;2023-09-07T00:17:57;1.10;;;1.10;;
8183;SDS011;4133;48.752;9.088;2023-09-07T00:20:23;1.47;;;1.37;;
8183;SDS011;4133;48.752;9.088;2023-09-07T00:22:50;0.90;;;0.90;;
8183;SDS011;4133;48.752;9.088;2023-09-07T00:25:16;1.17;;;1.10;;
8183;SDS011;4133;48.752;9.088;2023-09-07T00:27:42;1.30;;;1.20;;
8183;SDS011;4133;48.752;9.088;2023-09-07T00:30:08;1.00;;;1.00;;
8183;SDS011;4133;48.752;9.088;2023-09-07T00:32:37;1.10;;;1.00;;
8183;SDS011;4133;48.752;9.088;2023-09-07T00:35:04;1.40;;;1.30;;
8183;SDS011;4133;48.752;9.088;2023-09-07T00:37:31;1.20;;;1.10;;
8183;SDS011;4133;48.752;9.088;2023-09-07T00:39:57;1.30;;;1.20;;
8183;SDS011;4133;48.752;9.088;2023-09-07T00:42:23;1.30;;;1.20;;
8183;SDS011;4133;48.752;9.088;2023-09-07T00:44:49;1.00;;;0.80;;
8183;SDS011;4133;48.752;9.088;2023-09-07T00:47:15;0.90;;;0.90;;
8183;SDS011;4133;48.752;9.088;2023-09-07T00:49:42;1.00;;;1.00;;
8183;SDS011;4133;48.752;9.088;2023-09-07T00:52:08;0.73;;;0.73;;
8183;SDS011;4133;48.752;9.088;2023-09-07T00:54:35;1.47;;;1.27;;
8183;SDS011;4133;48.752;9.088;2023-09-07T00:57:03;1.27;;;1.17;;
8183;SDS011;4133;48.752;9.088;2023-09-07T00:59:29;1.00;;;1.00;;
8183;SDS011;4133;48.752;9.088;2023-09-07T01:01:55;0.87;;;0.87;;
8183;SDS011;4133;48.752;9.088;2023-09-07T01:04:21;1.00;;;0.90;;
8183;SDS011;4133;48.752;9.088;2023-09-07T01:06:50;1.47;;;1.10;;
8183;SDS011;4133;48.752;9.088;2023-09-07T01:09:19;1.97;;;1.03;;
8183;SDS011;4133;48.752;9.088;2023-09-07T01:11:45;1.00;;;1.00;;
8183;SDS011;4133;48.752;9.088;2023-09-07T01:14:11;1.43;;;1.33;;
8183;SDS011;4133;48.752;9.088;2023-09-07T01:16:37;1.07;;;1.07;;
8183;SDS011;4133;48.752;9.088;2023-09-07T01:19:07;1.10;;;0.90;;
8183;SDS011;4133;48.752;9.088;2023-09-07T01:21:35;1.20;;;1.07;;
8183;SDS011;4133;48.752;9.088;2023-09-07T01:24:01;1.07;;;1.03;;
8183;SDS011;4133;48.752;9.088;2023-09-07T01:26:28;1.07;;;0.97;;
8183;SDS011;4133;48.752;9.088;2023-09-07T01:28:54;1.10;;;1.10;;
8183;SDS011;4133;48.752;9.088;2023-09-07T01:31:20;1.73;;;0.90;;
8183;SDS011;4133;48.752;9.088;2023-09-07T01:33:46;1.23;;;0.90;;
8183;SDS011;4133;48.752;9.088;2023-09-07T01:36:12;0.90;;;0.90;;
8183;SDS011;4133;48.752;9.088;2023-09-07T01:38:38;0.80;;;0.80;;
8183;SDS011;4133;48.752;9.088;2023-09-07T01:41:04;1.00;;;1.00;;
8183;SDS011;4133;48.752;9.088;2023-09-07T01:43:30;1.10;;;1.10;;
8183;SDS011;4133;48.752;9.088;2023-09-07T01:45:56;1.07;;;1.07;;
8183;SDS011;4133;48.752;9.088;2023-09-07T01:48:22;1.47;;;1.00;;
8183;SDS011;4133;48.752;9.088;2023-09-07T01:50:51;1.30;;;1.20;;
8183;SDS011;4133;48.752;9.088;2023-09-07T01:53:18;1.23;;;1.20;;
8183;SDS011;4133;48.752;9.088;2023-09-07T01:55:44;1.10;;;1.10;;
8183;SDS011;4133;48.752;9.088;2023-09-07T01:58:10;1.20;;;1.10;;
8183;SDS011;4133;48.752;9.088;2023-09-07T02:00:37;1.20;;;1.10;;
8183;SDS011;4133;48.752;9.088;2023-09-07T02:03:04;1.00;;;0.90;;
8183;SDS011;4133;48.752;9.088;2023-09-07T02:05:30;1.20;;;1.10;;
8183;SDS011;4133;48.752;9.088;2023-09-07T02:07:57;1.10;;;1.10;;
8183;SDS011;4133;48.752;9.088;2023-09-07T02:10:23;1.40;;;1.30;;
8183;SDS011;4133;48.752;9.088;2023-09-07T02:12:49;1.00;;;0.93;;
8183;SDS011;4133;48.752;9.088;2023-09-07T02:15:15;0.77;;;0.77;;
8183;SDS011;4133;48.752;9.088;2023-09-07T02:17:42;1.73;;;1.20;;
8183;SDS011;4133;48.752;9.088;2023-09-07T02:20:10;0.90;;;0.90;;
8183;SDS011;4133;48.752;9.088;2023-09-07T02:22:36;1.20;;;1.10;;
8183;SDS011;4133;48.752;9.088;2023-09-07T02:25:02;0.90;;;0.90;;
8183;SDS011;4133;48.752;9.088;2023-09-07T02:27:30;0.77;;;0.77;;
8183;SDS011;4133;48.752;9.088;2023-09-07T02:29:56;1.10;;;1.00;;
8183;SDS011;4133;48.752;9.088;2023-09-07T02:32:22;0.90;;;0.90;;
8183;SDS011;4133;48.752;9.088;2023-09-07T02:34:48;0.80;;;0.80;;
8183;SDS011;4133;48.752;9.088;2023-09-07T02:37:14;0.83;;;0.83;;
8183;SDS011;4133;48.752;9.088;2023-09-07T02:39:41;1.17;;;1.07;;
8183;SDS011;4133;48.752;9.088;2023-09-07T02:42:07;1.00;;;0.93;;
8183;SDS011;4133;48.752;9.088;2023-09-07T02:44:33;0.73;;;0.73;;
8183;SDS011;4133;48.752;9.088;2023-09-07T02:46:59;0.90;;;0.90;;
8183;SDS011;4133;48.752;9.088;2023-09-07T02:49:25;0.90;;;0.90;;
8183;SDS011;4133;48.752;9.088;2023-09-07T02:51:51;1.30;;;1.20;;
8183;SDS011;4133;48.752;9.088;2023-09-07T02:54:17;1.13;;;1.03;;
8183;SDS011;4133;48.752;9.088;2023-09-07T02:56:43;1.10;;;1.10;;
8183;SDS011;4133;48.752;9.088;2023-09-07T02:59:09;1.40;;;1.30;;
8183;SDS011;4133;48.752;9.088;2023-09-07T03:01:35;1.00;;;1.00;;
8183;SDS011;4133;48.752;9.088;2023-09-07T03:04:01;1.07;;;1.00;;
8183;SDS011;4133;48.752;9.088;2023-09-07T03:06:28;1.07;;;1.03;;
8183;SDS011;4133;48.752;9.088;2023-09-07T03:08:54;0.97;;;0.97;;
8183;SDS011;4133;48.752;9.088;2023-09-07T03:11:21;0.90;;;0.90;;
8183;SDS011;4133;48.752;9.088;2023-09-07T03:13:47;0.90;;;0.90;;
8183;SDS011;4133;48.752;9.088;2023-09-07T03:16:26;1.87;;;0.90;;
8183;SDS011;4133;48.752;9.088;2023-09-07T03:18:52;1.03;;;1.03;;
8183;SDS011;4133;48.752;9.088;2023-09-07T03:21:18;1.43;;;1.20;;
8183;SDS011;4133;48.752;9.088;2023-09-07T03:24:02;1.27;;;1.17;;
8183;SDS011;4133;48.752;9.088;2023-09-07T03:26:28;1.30;;;1.20;;
8183;SDS011;4133;48.752;9.088;2023-09-07T03:28:54;1.20;;;1.20;;
8183;SDS011;4133;48.752;9.088;2023-09-07T03:31:22;1.00;;;1.00;;
8183;SDS011;4133;48.752;9.088;2023-09-07T03:33:48;1.13;;;1.07;;
8183;SDS011;4133;48.752;9.088;2023-09-07T03:36:14;1.10;;;1.00;;
8183;SDS011;4133;48.752;9.088;2023-09-07T03:38:46;1.20;;;1.07;;
8183;SDS011;4133;48.752;9.088;2023-09-07T03:41:12;0.60;;;0.60;;
8183;SDS011;4133;48.752;9.088;2023-09-07T03:43:38;0.90;;;0.90;;
8183;SDS011;4133;48.752;9.088;2023-09-07T03:46:05;0.80;;;0.80;;
8183;SDS011;4133;48.752;9.088;2023-09-07T03:48:33;0.90;;;0.90;;
8183;SDS011;4133;48.752;9.088;2023-09-07T03:50:59;0.97;;;0.97;;
8183;SDS011;4133;48.752;9.088;2023-09-07T03:53:25;0.83;;;0.83;;
8183;SDS011;4133;48.752;9.088;2023-09-07T03:55:51;1.30;;;1.20;;
8183;SDS011;4133;48.752;9.088;2023-09-07T03:58:17;0.90;;;0.90;;
8183;SDS011;4133;48.752;9.088;2023-09-07T04:00:43;0.90;;;0.90;;
8183;SDS011;4133;48.752;9.088;2023-09-07T04:03:09;0.70;;;0.70;;
8183;SDS011;4133;48.752;9.088;2023-09-07T04:05:38;0.80;;;0.80;;
8183;SDS011;4133;48.752;9.088;2023-09-07T04:08:04;4.00;;;1.00;;
8183;SDS011;4133;48.752;9.088;2023-09-07T04:10:31;0.90;;;0.90;;
8183;SDS011;4133;48.752;9.088;2023-09-07T04:12:57;0.90;;;0.90;;
8183;SDS011;4133;48.752;9.088;2023-09-07T04:15:23;1.40;;;1.30;;
8183;SDS011;4133;48.752;9.088;2023-09-07T04:17:50;0.80;;;0.80;;
8183;SDS011;4133;48.752;9.088;2023-09-07T04:20:16;1.10;;;1.00;;
8183;SDS011;4133;48.752;9.088;2023-09-07T04:22:42;0.70;;;0.70;;
8183;SDS011;4133;48.752;9.088;2023-09-07T04:25:08;1.20;;;1.07;;
8183;SDS011;4133;48.752;9.088;2023-09-07T04:27:34;1.93;;;1.10;;
8183;SDS011;4133;48.752;9.088;2023-09-07T04:30:00;0.90;;;0.90;;
8183;SDS011;4133;48.752;9.088;2023-09-07T04:32:26;0.80;;;0.80;;
8183;SDS011;4133;48.752;9.088;2023-09-07T04:34:53;0.90;;;0.90;;
8183;SDS011;4133;48.752;9.088;2023-09-07T04:37:19;0.90;;;0.90;;
8183;SDS011;4133;48.752;9.088;2023-09-07T04:39:45;0.93;;;0.93;;
8183;SDS011;4133;48.752;9.088;2023-09-07T04:42:12;1.13;;;1.03;;
8183;SDS011;4133;48.752;9.088;2023-09-07T04:44:38;0.87;;;0.87;;
8183;SDS011;4133;48.752;9.088;2023-09-07T04:47:04;0.63;;;0.63;;
8183;SDS011;4133;48.752;9.088;2023-09-07T04:49:31;0.77;;;0.77;;
8183;SDS011;4133;48.752;9.088;2023-09-07T04:51:57;1.33;;;1.23;;
8183;SDS011;4133;48.752;9.088;2023-09-07T04:54:23;0.80;;;0.80;;
8183;SDS011;4133;48.752;9.088;2023-09-07T04:56:49;1.17;;;1.07;;
8183;SDS011;4133;48.752;9.088;2023-09-07T04:59:15;0.87;;;0.87;;
8183;SDS011;4133;48.752;9.088;2023-09-07T05:01:41;1.37;;;0.93;;
8183;SDS011;4133;48.752;9.088;2023-09-07T05:04:07;0.90;;;0.90;;
8183;SDS011;4133;48.752;9.088;2023-09-07T05:06:33;0.93;;;0.93;;
8183;SDS011;4133;48.752;9.088;2023-09-07T05:09:02;1.10;;;1.00;;
8183;SDS011;4133;48.752;9.088;2023-09-07T05:11:28;0.80;;;0.80;;
8183;SDS011;4133;48.752;9.088;2023-09-07T05:13:54;0.90;;;0.90;;
8183;SDS011;4133;48.752;9.088;2023-09-07T05:16:20;1.10;;;1.10;;
8183;SDS011;4133;48.752;9.088;2023-09-07T05:18:46;1.33;;;0.97;;
8183;SDS011;4133;48.752;9.088;2023-09-07T05:21:16;0.90;;;0.90;;
8183;SDS011;4133;48.752;9.088;2023-09-07T05:23:42;2.10;;;1.10;;
8183;SDS011;4133;48.752;9.088;2023-09-07T05:26:08;1.10;;;1.10;;
8183;SDS011;4133;48.752;9.088;2023-09-07T05:28:34;0.77;;;0.77;;
8183;SDS011;4133;48.752;9.088;2023-09-07T05:31:00;1.27;;;1.10;;
8183;SDS011;4133;48.752;9.088;2023-09-07T05:33:26;0.90;;;0.90;;
8183;SDS011;4133;48.752;9.088;2023-09-07T05:35:52;0.83;;;0.83;;
8183;SDS011;4133;48.752;9.088;2023-09-07T05:38:18;0.77;;;0.77;;
8183;SDS011;4133;48.752;9.088;2023-09-07T05:40:44;0.90;;;0.90;;
8183;SDS011;4133;48.752;9.088;2023-09-07T05:43:11;1.10;;;1.10;;
8183;SDS011;4133;48.752;9.088;2023-09-07T05:45:40;0.83;;;0.83;;
8183;SDS011;4133;48.752;9.088;2023-09-07T05:48:07;1.43;;;1.33;;
8183;SDS011;4133;48.752;9.088;2023-09-07T05:50:34;1.10;;;1.03;;
8183;SDS011;4133;48.752;9.088;2023-09-07T05:53:00;1.10;;;1.10;;
8183;SDS011;4133;48.752;9.088;2023-09-07T05:55:26;1.30;;;1.20;;
8183;SDS011;4133;48.752;9.088;2023-09-07T05:57:55;2.40;;;1.27;;
8183;SDS011;4133;48.752;9.088;2023-09-07T06:00:22;1.87;;;1.03;;
8183;SDS011;4133;48.752;9.088;2023-09-07T06:02:48;1.23;;;1.13;;
8183;SDS011;4133;48.752;9.088;2023-09-07T06:05:14;1.13;;;1.10;;
8183;SDS011;4133;48.752;9.088;2023-09-07T06:07:41;1.00;;;0.87;;
8183;SDS011;4133;48.752;9.088;2023-09-07T06:10:07;1.10;;;1.00;;
8183;SDS011;4133;48.752;9.088;2023-09-07T06:12:33;1.50;;;1.40;;
8183;SDS011;4133;48.752;9.088;2023-09-07T06:15:00;1.07;;;1.07;;
8183;SDS011;4133;48.752;9.088;2023-09-07T06:17:26;2.93;;;1.00;;
8183;SDS011;4133;48.752;9.088;2023-09-07T06:19:53;1.47;;;1.37;;
8183;SDS011;4133;48.752;9.088;2023-09-07T06:22:19;1.03;;;1.03;;
8183;SDS011;4133;48.752;9.088;2023-09-07T06:24:45;1.57;;;1.27;;
8183;SDS011;4133;48.752;9.088;2023-09-07T06:27:11;2.43;;;1.30;;
8183;SDS011;4133;48.752;9.088;2023-09-07T06:29:37;1.30;;;1.20;;
8183;SDS011;4133;48.752;9.088;2023-09-07T06:32:03;0.97;;;0.97;;
8183;SDS011;4133;48.752;9.088;2023-09-07T06:34:29;1.30;;;1.20;;
8183;SDS011;4133;48.752;9.088;2023-09-07T06:36:55;1.10;;;1.10;;
8183;SDS011;4133;48.752;9.088;2023-09-07T06:39:21;1.47;;;1.37;;
8183;SDS011;4133;48.752;9.088;2023-09-07T06:41:47;1.37;;;1.27;;
8183;SDS011;4133;48.752;9.088;2023-09-07T06:44:13;1.53;;;1.43;;
8183;SDS011;4133;48.752;9.088;2023-09-07T06:46:39;1.90;;;1.50;;
8183;SDS011;4133;48.752;9.088;2023-09-07T06:49:05;1.53;;;1.43;;
8183;SDS011;4133;48.752;9.088;2023-09-07T06:51:32;1.97;;;1.70;;
8183;SDS011;4133;48.752;9.088;2023-09-07T06:53:58;1.63;;;1.53;;
8183;SDS011;4133;48.752;9.088;2023-09-07T06:56:24;2.13;;;1.93;;
8183;SDS011;4133;48.752;9.088;2023-09-07T06:58:51;1.87;;;1.77;;
8183;SDS011;4133;48.752;9.088;2023-09-07T07:01:17;3.03;;;2.43;;
8183;SDS011;4133;48.752;9.088;2023-09-07T07:03:43;2.30;;;2.10;;
8183;SDS011;4133;48.752;9.088;2023-09-07T07:06:09;2.50;;;2.30;;
8183;SDS011;4133;48.752;9.088;2023-09-07T07:08:35;2.28;;;2.08;;
8183;SDS011;4133;48.752;9.088;2023-09-07T07:11:01;2.50;;;2.13;;
8183;SDS011;4133;48.752;9.088;2023-09-07T07:13:27;2.60;;;2.40;;
8183;SDS011;4133;48.752;9.088;2023-09-07T07:15:53;2.53;;;2.33;;
8183;SDS011;4133;48.752;9.088;2023-09-07T07:18:19;2.40;;;2.20;;
8183;SDS011;4133;48.752;9.088;2023-09-07T07:20:45;2.10;;;1.98;;
8183;SDS011;4133;48.752;9.088;2023-09-07T07:23:11;2.35;;;2.15;;
8183;SDS011;4133;48.752;9.088;2023-09-07T07:25:37;2.47;;;2.28;;
8183;SDS011;4133;48.752;9.088;2023-09-07T07:28:04;2.75;;;2.03;;
8183;SDS011;4133;48.752;9.088;2023-09-07T07:30:37;2.45;;;2.25;;
8183;SDS011;4133;48.752;9.088;2023-09-07T07:33:05;3.13;;;2.03;;
8183;SDS011;4133;48.752;9.088;2023-09-07T07:35:31;2.00;;;1.80;;
8183;SDS011;4133;48.752;9.088;2023-09-07T07:37:57;1.88;;;1.77;;
8183;SDS011;4133;48.752;9.088;2023-09-07T07:40:23;2.45;;;2.25;;
8183;SDS011;4133;48.752;9.088;2023-09-07T07:42:51;2.10;;;1.90;;
8183;SDS011;4133;48.752;9.088;2023-09-07T07:45:17;3.13;;;2.15;;
8183;SDS011;4133;48.752;9.088;2023-09-07T07:47:54;2.50;;;1.63;;
8183;SDS011;4133;48.752;9.088;2023-09-07T07:50:20;2.15;;;1.95;;
8183;SDS011;4133;48.752;9.088;2023-09-07T07:52:46;2.30;;;2.10;;
8183;SDS011;4133;48.752;9.088;2023-09-07T07:55:12;1.95;;;1.75;;
8183;SDS011;4133;48.752;9.088;2023-09-07T07:57:38;2.40;;;2.20;;
8183;SDS011;4133;48.752;9.088;2023-09-07T08:00:04;2.55;;;2.08;;
8183;SDS011;4133;48.752;9.088;2023-09-07T08:02:31;1.92;;;1.83;;
8183;SDS011;4133;48.752;9.088;2023-09-07T08:04:57;2.10;;;1.90;;
8183;SDS011;4133;48.752;9.088;2023-09-07T08:07:24;1.80;;;1.70;;
8183;SDS011;4133;48.752;9.088;2023-09-07T08:09:50;1.90;;;1.80;;
8183;SDS011;4133;48.752;9.088;2023-09-07T08:12:16;2.08;;;1.88;;
8183;SDS011;4133;48.752;9.088;2023-09-07T08:14:42;2.03;;;1.65;;
8183;SDS011;4133;48.752;9.088;2023-09-07T08:17:08;2.38;;;2.10;;
8183;SDS011;4133;48.752;9.088;2023-09-07T08:19:34;2.78;;;1.77;;
8183;SDS011;4133;48.752;9.088;2023-09-07T08:22:00;1.80;;;1.70;;
8183;SDS011;4133;48.752;9.088;2023-09-07T08:24:28;2.92;;;2.08;;
8183;SDS011;4133;48.752;9.088;2023-09-07T08:26:54;3.58;;;1.65;;
8183;SDS011;4133;48.752;9.088;2023-09-07T08:29:22;1.80;;;1.70;;
8183;SDS011;4133;48.752;9.088;2023-09-07T08:31:51;2.13;;;1.80;;
8183;SDS011;4133;48.752;9.088;2023-09-07T08:34:17;1.88;;;1.75;;
8183;SDS011;4133;48.752;9.088;2023-09-07T08:36:45;2.95;;;1.58;;
8183;SDS011;4133;48.752;9.088;2023-09-07T08:39:12;2.47;;;1.83;;
8183;SDS011;4133;48.752;9.088;2023-09-07T08:41:39;1.75;;;1.65;;
8183;SDS011;4133;48.752;9.088;2023-09-07T08:44:15;1.95;;;1.85;;
8183;SDS011;4133;48.752;9.088;2023-09-07T08:46:41;2.05;;;1.90;;
8183;SDS011;4133;48.752;9.088;2023-09-07T08:51:38;2.17;;;1.98;;
8183;SDS011;4133;48.752;9.088;2023-09-07T08:54:04;1.85;;;1.75;;
8183;SDS011;4133;48.752;9.088;2023-09-07T08:56:30;1.80;;;1.70;;
8183;SDS011;4133;48.752;9.088;2023-09-07T08:58:57;1.50;;;1.40;;
8183;SDS011;4133;48.752;9.088;2023-09-07T09:01:23;1.63;;;1.50;;
8183;SDS011;4133;48.752;9.088;2023-09-07T09:03:49;2.33;;;2.03;;
8183;SDS011;4133;48.752;9.088;2023-09-07T09:06:20;1.92;;;1.77;;
8183;SDS011;4133;48.752;9.088;2023-09-07T09:08:48;1.90;;;1.70;;
8183;SDS011;4133;48.752;9.088;2023-09-07T09:11:14;2.65;;;1.90;;
8183;SDS011;4133;48.752;9.088;2023-09-07T09:13:41;1.83;;;1.73;;
8183;SDS011;4133;48.752;9.088;2023-09-07T09:16:07;3.70;;;1.90;;
8183;SDS011;4133;48.752;9.088;2023-09-07T09:18:33;1.60;;;1.50;;
8183;SDS011;4133;48.752;9.088;2023-09-07T09:20:59;2.67;;;1.85;;
8183;SDS011;4133;48.752;9.088;2023-09-07T09:23:35;1.50;;;1.40;;
8183;SDS011;4133;48.752;9.088;2023-09-07T09:26:01;1.92;;;1.80;;
8183;SDS011;4133;48.752;9.088;2023-09-07T09:28:28;2.67;;;1.98;;
8183;SDS011;4133;48.752;9.088;2023-09-07T09:30:56;1.90;;;1.67;;
8183;SDS011;4133;48.752;9.088;2023-09-07T09:33:22;3.20;;;2.03;;
8183;SDS011;4133;48.752;9.088;2023-09-07T09:35:48;1.83;;;1.73;;
8183;SDS011;4133;48.752;9.088;2023-09-07T09:38:15;2.10;;;1.90;;
8183;SDS011;4133;48.752;9.088;2023-09-07T09:40:41;2.20;;;2.00;;
8183;SDS011;4133;48.752;9.088;2023-09-07T09:43:08;1.65;;;1.55;;
8183;SDS011;4133;48.752;9.088;2023-09-07T09:45:34;2.03;;;1.85;;
8183;SDS011;4133;48.752;9.088;2023-09-07T09:48:02;1.77;;;1.67;;
8183;SDS011;4133;48.752;9.088;2023-09-07T09:50:29;1.85;;;1.67;;
8183;SDS011;4133;48.752;9.088;2023-09-07T09:52:56;1.60;;;1.50;;
8183;SDS011;4133;48.752;9.088;2023-09-07T09:55:23;1.80;;;1.70;;
8183;SDS011;4133;48.752;9.088;2023-09-07T09:57:49;2.03;;;1.83;;
8183;SDS011;4133;48.752;9.088;2023-09-07T10:00:16;2.22;;;2.00;;
8183;SDS011;4133;48.752;9.088;2023-09-07T10:02:46;2.00;;;1.85;;
8183;SDS011;4133;48.752;9.088;2023-09-07T10:05:13;1.98;;;1.77;;
8183;SDS011;4133;48.752;9.088;2023-09-07T10:07:43;2.40;;;1.70;;
8183;SDS011;4133;48.752;9.088;2023-09-07T10:10:09;2.15;;;1.83;;
8183;SDS011;4133;48.752;9.088;2023-09-07T10:12:39;1.80;;;1.70;;
8183;SDS011;4133;48.752;9.088;2023-09-07T10:15:06;1.75;;;1.60;;
8183;SDS011;4133;48.752;9.088;2023-09-07T10:17:32;1.75;;;1.65;;
8183;SDS011;4133;48.752;9.088;2023-09-07T10:20:01;2.00;;;1.90;;
8183;SDS011;4133;48.752;9.088;2023-09-07T10:22:30;2.28;;;1.70;;
8183;SDS011;4133;48.752;9.088;2023-09-07T10:24:57;1.77;;;1.67;;
8183;SDS011;4133;48.752;9.088;2023-09-07T10:27:23;1.75;;;1.65;;
8183;SDS011;4133;48.752;9.088;2023-09-07T10:29:52;1.70;;;1.60;;
8183;SDS011;4133;48.752;9.088;2023-09-07T10:32:18;2.72;;;1.52;;
8183;SDS011;4133;48.752;9.088;2023-09-07T10:34:44;2.22;;;1.80;;
8183;SDS011;4133;48.752;9.088;2023-09-07T10:37:11;1.60;;;1.50;;
8183;SDS011;4133;48.752;9.088;2023-09-07T10:39:38;2.05;;;1.77;;
8183;SDS011;4133;48.752;9.088;2023-09-07T10:42:04;2.10;;;1.90;;
8183;SDS011;4133;48.752;9.088;2023-09-07T10:44:30;1.92;;;1.83;;
8183;SDS011;4133;48.752;9.088;2023-09-07T10:46:56;1.92;;;1.73;;
8183;SDS011;4133;48.752;9.088;2023-09-07T10:49:23;1.80;;;1.70;;
8183;SDS011;4133;48.752;9.088;2023-09-07T10:51:49;1.80;;;1.70;;
8183;SDS011;4133;48.752;9.088;2023-09-07T10:54:15;1.80;;;1.70;;
8183;SDS011;4133;48.752;9.088;2023-09-07T10:56:45;3.55;;;2.00;;
8183;SDS011;4133;48.752;9.088;2023-09-07T10:59:12;1.83;;;1.73;;
8183;SDS011;4133;48.752;9.088;2023-09-07T11:01:38;2.10;;;1.90;;
8183;SDS011;4133;48.752;9.088;2023-09-07T11:04:04;2.10;;;1.92;;
8183;SDS011;4133;48.752;9.088;2023-09-07T11:06:33;2.65;;;1.85;;
8183;SDS011;4133;48.752;9.088;2023-09-07T11:09:02;1.95;;;1.52;;
8183;SDS011;4133;48.752;9.088;2023-09-07T11:11:36;2.35;;;1.60;;
8183;SDS011;4133;48.752;9.088;2023-09-07T11:14:03;1.92;;;1.80;;
8183;SDS011;4133;48.752;9.088;2023-09-07T11:16:30;2.20;;;2.00;;
8183;SDS011;4133;48.752;9.088;2023-09-07T11:18:56;1.70;;;1.60;;
8183;SDS011;4133;48.752;9.088;2023-09-07T11:21:23;1.70;;;1.60;;
8183;SDS011;4133;48.752;9.088;2023-09-07T11:23:50;1.63;;;1.52;;
8183;SDS011;4133;48.752;9.088;2023-09-07T11:26:16;1.63;;;1.50;;
8183;SDS011;4133;48.752;9.088;2023-09-07T11:28:44;2.78;;;1.88;;
8183;SDS011;4133;48.752;9.088;2023-09-07T11:31:11;2.17;;;1.83;;
8183;SDS011;4133;48.752;9.088;2023-09-07T11:33:37;2.40;;;1.77;;
8183;SDS011;4133;48.752;9.088;2023-09-07T11:36:04;1.90;;;1.80;;
8183;SDS011;4133;48.752;9.088;2023-09-07T11:38:34;1.73;;;1.63;;
8183;SDS011;4133;48.752;9.088;2023-09-07T11:41:01;1.90;;;1.80;;
8183;SDS011;4133;48.752;9.088;2023-09-07T11:43:28;2.25;;;2.05;;
8183;SDS011;4133;48.752;9.088;2023-09-07T11:45:54;1.88;;;1.50;;
8183;SDS011;4133;48.752;9.088;2023-09-07T11:48:24;1.60;;;1.50;;
8183;SDS011;4133;48.752;9.088;2023-09-07T11:50:50;1.83;;;1.70;;
8183;SDS011;4133;48.752;9.088;2023-09-07T11:53:16;2.35;;;1.88;;
8183;SDS011;4133;48.752;9.088;2023-09-07T11:55:42;1.90;;;1.70;;
8183;SDS011;4133;48.752;9.088;2023-09-07T11:58:08;2.20;;;2.00;;
8183;SDS011;4133;48.752;9.088;2023-09-07T12:00:34;2.35;;;2.15;;
8183;SDS011;4133;48.752;9.088;2023-09-07T12:03:01;4.30;;;1.83;;
8183;SDS011;4133;48.752;9.088;2023-09-07T12:05:27;1.63;;;1.52;;
8183;SDS011;4133;48.752;9.088;2023-09-07T12:07:53;1.88;;;1.77;;
8183;SDS011;4133;48.752;9.088;2023-09-07T12:10:19;2.40;;;2.08;;
8183;SDS011;4133;48.752;9.088;2023-09-07T12:12:45;2.13;;;1.95;;
8183;SDS011;4133;48.752;9.088;2023-09-07T12:15:11;2.40;;;1.90;;
8183;SDS011;4133;48.752;9.088;2023-09-07T12:17:39;2.30;;;1.70;;
8183;SDS011;4133;48.752;9.088;2023-09-07T12:20:05;2.33;;;2.13;;
8183;SDS011;4133;48.752;9.088;2023-09-07T12:22:38;1.98;;;1.88;;
8183;SDS011;4133;48.752;9.088;2023-09-07T12:25:05;2.00;;;1.85;;
8183;SDS011;4133;48.752;9.088;2023-09-07T12:27:32;1.73;;;1.60;;
8183;SDS011;4133;48.752;9.088;2023-09-07T12:29:58;2.30;;;2.10;;
8183;SDS011;4133;48.752;9.088;2023-09-07T12:32:24;2.08;;;1.80;;
8183;SDS011;4133;48.752;9.088;2023-09-07T12:34:50;1.95;;;1.85;;
8183;SDS011;4133;48.752;9.088;2023-09-07T12:37:18;2.15;;;1.60;;
8183;SDS011;4133;48.752;9.088;2023-09-07T12:39:48;2.55;;;2.15;;
8183;SDS011;4133;48.752;9.088;2023-09-07T12:42:14;1.80;;;1.70;;
8183;SDS011;4133;48.752;9.088;2023-09-07T12:44:40;1.67;;;1.58;;
8183;SDS011;4133;48.752;9.088;2023-09-07T12:47:06;1.63;;;1.52;;
8183;SDS011;4133;48.752;9.088;2023-09-07T12:49:38;1.50;;;1.40;;
8183;SDS011;4133;48.752;9.088;2023-09-07T12:52:05;2.00;;;1.80;;
8183;SDS011;4133;48.752;9.088;2023-09-07T12:54:34;2.40;;;1.90;;
8183;SDS011;4133;48.752;9.088;2023-09-07T12:57:00;2.15;;;1.95;;
8183;SDS011;4133;48.752;9.088;2023-09-07T12:59:26;1.75;;;1.65;;
8183;SDS011;4133;48.752;9.088;2023-09-07T13:01:53;1.80;;;1.70;;
8183;SDS011;4133;48.752;9.088;2023-09-07T13:04:21;1.90;;;1.80;;
8183;SDS011;4133;48.752;9.088;2023-09-07T13:06:47;2.45;;;1.55;;
8183;SDS011;4133;48.752;9.088;2023-09-07T13:09:13;1.80;;;1.70;;
8183;SDS011;4133;48.752;9.088;2023-09-07T13:11:39;3.45;;;1.50;;
8183;SDS011;4133;48.752;9.088;2023-09-07T13:14:05;2.28;;;2.08;;
8183;SDS011;4133;48.752;9.088;2023-09-07T13:16:33;1.60;;;1.50;;
8183;SDS011;4133;48.752;9.088;2023-09-07T13:18:59;1.58;;;1.45;;
8183;SDS011;4133;48.752;9.088;2023-09-07T13:21:25;1.70;;;1.60;;
8183;SDS011;4133;48.752;9.088;2023-09-07T13:23:51;1.67;;;1.50;;
8183;SDS011;4133;48.752;9.088;2023-09-07T13:26:17;1.70;;;1.60;;
8183;SDS011;4133;48.752;9.088;2023-09-07T13:28:43;3.00;;;1.75;;
8183;SDS011;4133;48.752;9.088;2023-09-07T13:31:09;2.00;;;1.20;;
8183;SDS011;4133;48.752;9.088;2023-09-07T13:33:35;2.55;;;1.60;;
8183;SDS011;4133;48.752;9.088;2023-09-07T13:36:01;1.67;;;1.55;;
8183;SDS011;4133;48.752;9.088;2023-09-07T13:38:27;1.70;;;1.60;;
8183;SDS011;4133;48.752;9.088;2023-09-07T13:40:53;1.42;;;1.33;;
8183;SDS011;4133;48.752;9.088;2023-09-07T13:43:19;1.50;;;1.40;;
8183;SDS011;4133;48.752;9.088;2023-09-07T13:45:45;1.42;;;1.33;;
8183;SDS011;4133;48.752;9.088;2023-09-07T13:48:24;1.60;;;1.50;;
8183;SDS011;4133;48.752;9.088;2023-09-07T13:50:50;1.85;;;1.30;;
8183;SDS011;4133;48.752;9.088;2023-09-07T13:53:16;1.83;;;1.60;;
8183;SDS011;4133;48.752;9.088;2023-09-07T13:55:42;1.90;;;1.40;;
8183;SDS011;4133;48.752;9.088;2023-09-07T13:58:11;1.40;;;1.30;;
8183;SDS011;4133;48.752;9.088;2023-09-07T14:00:37;1.77;;;1.65;;
8183;SDS011;4133;48.752;9.088;2023-09-07T14:03:03;1.13;;;1.05;;
8183;SDS011;4133;48.752;9.088;2023-09-07T14:05:29;1.50;;;1.40;;
8183;SDS011;4133;48.752;9.088;2023-09-07T14:07:55;1.02;;;1.02;;
8183;SDS011;4133;48.752;9.088;2023-09-07T14:10:24;1.70;;;1.48;;
8183;SDS011;4133;48.752;9.088;2023-09-07T14:12:50;1.48;;;1.38;;
8183;SDS011;4133;48.752;9.088;2023-09-07T14:15:16;1.45;;;1.35;;
8183;SDS011;4133;48.752;9.088;2023-09-07T14:17:42;2.20;;;2.00;;
8183;SDS011;4133;48.752;9.088;2023-09-07T14:20:08;1.67;;;1.38;;
8183;SDS011;4133;48.752;9.088;2023-09-07T14:22:35;2.00;;;1.33;;
8183;SDS011;4133;48.752;9.088;2023-09-07T14:25:01;2.65;;;1.45;;
8183;SDS011;4133;48.752;9.088;2023-09-07T14:27:27;1.40;;;1.30;;
8183;SDS011;4133;48.752;9.088;2023-09-07T14:29:53;1.55;;;1.45;;
8183;SDS011;4133;48.752;9.088;2023-09-07T14:32:19;1.48;;;1.33;;
8183;SDS011;4133;48.752;9.088;2023-09-07T14:34:46;1.60;;;1.50;;
8183;SDS011;4133;48.752;9.088;2023-09-07T14:37:11;1.50;;;1.40;;
8183;SDS011;4133;48.752;9.088;2023-09-07T14:39:38;1.60;;;1.23;;
8183;SDS011;4133;48.752;9.088;2023-09-07T14:42:04;1.40;;;1.30;;
8183;SDS011;4133;48.752;9.088;2023-09-07T14:44:36;1.65;;;1.48;;
8183;SDS011;4133;48.752;9.088;2023-09-07T14:47:02;4.63;;;1.58;;
8183;SDS011;4133;48.752;9.088;2023-09-07T14:49:40;1.40;;;1.30;;
8183;SDS011;4133;48.752;9.088;2023-09-07T14:52:06;1.50;;;1.40;;
8183;SDS011;4133;48.752;9.088;2023-09-07T14:54:33;3.50;;;1.38;;
8183;SDS011;4133;48.752;9.088;2023-09-07T14:56:59;1.40;;;1.30;;
8183;SDS011;4133;48.752;9.088;2023-09-07T14:59:25;2.95;;;1.55;;
8183;SDS011;4133;48.752;9.088;2023-09-07T15:01:51;1.20;;;1.20;;
8183;SDS011;4133;48.752;9.088;2023-09-07T15:04:17;2.10;;;1.65;;
8183;SDS011;4133;48.752;9.088;2023-09-07T15:06:43;1.40;;;1.30;;
8183;SDS011;4133;48.752;9.088;2023-09-07T15:09:09;1.50;;;1.40;;
8183;SDS011;4133;48.752;9.088;2023-09-07T15:11:36;1.35;;;1.25;;
8183;SDS011;4133;48.752;9.088;2023-09-07T15:14:02;1.33;;;1.23;;